sensor_id;sensor_type;location;lat;lon;timestamp;temperature;humidity
6518;DHT22;3292;48.944;9.240;2023-07-13T00:02:01;19.90;99.90
6518;DHT22;3292;48.944;9.240;2023-07-13T00:04:28;19.90;99.90
6518;DHT22;3292;48.944;9.240;2023-07-13T00:06:55;19.80;99.90
6518;DHT22;3292;48.944;9.240;2023-07-13T00:09:24;19.80;99.90
6518;DHT22;3292;48.944;9.240;2023-07-13T00:11:55;19.80;99.90
6518;DHT22;3292;48.944;9.240;2023-07-13T00:14:22;19.70;99.90
6518;DHT22;3292;48.944;9.240;2023-07-13T00:16:50;19.70;99.90
6518;DHT22;3292;48.944;9.240;2023-07-13T00:19:20;19.60;99.90
6518;DHT22;3292;48.944;9.240;2023-07-13T00:21:47;19.50;99.90
6518;DHT22;3292;48.944;9.240;2023-07-13T00:24:18;19.40;99.90
6518;DHT22;3292;48.944;9.240;2023-07-13T00:26:50;19.40;99.90
6518;DHT22;3292;48.944;9.240;2023-07-13T00:29:18;19.40;99.90
6518;DHT22;3292;48.944;9.240;2023-07-13T00:31:49;19.30;99.90
6518;DHT22;3292;48.944;9.240;2023-07-13T00:34:19;19.30;99.90
6518;DHT22;3292;48.944;9.240;2023-07-13T00:36:49;19.30;99.90
6518;DHT22;3292;48.944;9.240;2023-07-13T00:39:16;19.20;99.90
6518;DHT22;3292;48.944;9.240;2023-07-13T00:41:43;19.20;99.90
6518;DHT22;3292;48.944;9.240;2023-07-13T00:44:14;19.20;99.90
6518;DHT22;3292;48.944;9.240;2023-07-13T00:46:41;19.10;99.90
6518;DHT22;3292;48.944;9.240;2023-07-13T00:49:11;19.00;99.90
6518;DHT22;3292;48.944;9.240;2023-07-13T00:51:43;19.00;99.90
6518;DHT22;3292;48.944;9.240;2023-07-13T00:54:19;18.90;99.90
6518;DHT22;3292;48.944;9.240;2023-07-13T00:56:50;18.90;99.90
6518;DHT22;3292;48.944;9.240;2023-07-13T00:59:22;18.90;99.90
6518;DHT22;3292;48.944;9.240;2023-07-13T01:01:49;18.90;99.90
6518;DHT22;3292;48.944;9.240;2023-07-13T01:04:17;18.80;99.90
6518;DHT22;3292;48.944;9.240;2023-07-13T01:06:47;18.70;99.90
6518;DHT22;3292;48.944;9.240;2023-07-13T01:09:14;18.70;99.90
6518;DHT22;3292;48.944;9.240;2023-07-13T01:11:43;18.70;99.90
6518;DHT22;3292;48.944;9.240;2023-07-13T01:14:12;18.70;99.90
6518;DHT22;3292;48.944;9.240;2023-07-13T01:16:50;18.70;99.90
6518;DHT22;3292;48.944;9.240;2023-07-13T01:19:25;18.70;99.90
6518;DHT22;3292;48.944;9.240;2023-07-13T01:22:03;18.70;99.90
6518;DHT22;3292;48.944;9.240;2023-07-13T01:24:34;18.60;99.90
6518;DHT22;3292;48.944;9.240;2023-07-13T01:27:02;18.60;99.90
6518;DHT22;3292;48.944;9.240;2023-07-13T01:29:35;18.50;99.90
6518;DHT22;3292;48.944;9.240;2023-07-13T01:32:08;18.50;99.90
6518;DHT22;3292;48.944;9.240;2023-07-13T01:34:35;18.40;99.90
6518;DHT22;3292;48.944;9.240;2023-07-13T01:37:14;18.40;99.90
6518;DHT22;3292;48.944;9.240;2023-07-13T01:39:40;18.30;99.90
6518;DHT22;3292;48.944;9.240;2023-07-13T01:42:07;18.20;99.90
6518;DHT22;3292;48.944;9.240;2023-07-13T01:44:40;18.20;99.90
6518;DHT22;3292;48.944;9.240;2023-07-13T01:47:07;18.30;99.90
6518;DHT22;3292;48.944;9.240;2023-07-13T01:49:34;18.20;99.90
6518;DHT22;3292;48.944;9.240;2023-07-13T01:52:01;18.20;99.90
6518;DHT22;3292;48.944;9.240;2023-07-13T01:54:31;18.10;99.90
6518;DHT22;3292;48.944;9.240;2023-07-13T01:56:59;18.10;99.90
6518;DHT22;3292;48.944;9.240;2023-07-13T01:59:26;18.10;99.90
6518;DHT22;3292;48.944;9.240;2023-07-13T02:02:03;18.20;99.90
6518;DHT22;3292;48.944;9.240;2023-07-13T02:04:35;18.20;99.90
6518;DHT22;3292;48.944;9.240;2023-07-13T02:07:05;18.20;99.90
6518;DHT22;3292;48.944;9.240;2023-07-13T02:09:36;18.20;99.90
6518;DHT22;3292;48.944;9.240;2023-07-13T02:12:07;18.20;99.90
6518;DHT22;3292;48.944;9.240;2023-07-13T02:14:39;18.10;99.90
6518;DHT22;3292;48.944;9.240;2023-07-13T02:17:10;18.10;99.90
6518;DHT22;3292;48.944;9.240;2023-07-13T02:19:36;18.10;99.90
6518;DHT22;3292;48.944;9.240;2023-07-13T02:22:04;18.10;99.90
6518;DHT22;3292;48.944;9.240;2023-07-13T02:24:31;18.00;99.90
6518;DHT22;3292;48.944;9.240;2023-07-13T02:27:06;18.00;99.90
6518;DHT22;3292;48.944;9.240;2023-07-13T02:29:33;18.00;99.90
6518;DHT22;3292;48.944;9.240;2023-07-13T02:32:10;17.90;99.90
6518;DHT22;3292;48.944;9.240;2023-07-13T02:34:40;17.90;99.90
6518;DHT22;3292;48.944;9.240;2023-07-13T02:37:16;17.90;99.90
6518;DHT22;3292;48.944;9.240;2023-07-13T02:39:43;17.80;99.90
6518;DHT22;3292;48.944;9.240;2023-07-13T02:42:25;17.70;99.90
6518;DHT22;3292;48.944;9.240;2023-07-13T02:44:52;17.70;99.90
6518;DHT22;3292;48.944;9.240;2023-07-13T02:47:19;17.70;99.90
6518;DHT22;3292;48.944;9.240;2023-07-13T02:49:47;17.70;99.90
6518;DHT22;3292;48.944;9.240;2023-07-13T02:52:17;17.70;99.90
6518;DHT22;3292;48.944;9.240;2023-07-13T02:54:46;17.70;99.90
6518;DHT22;3292;48.944;9.240;2023-07-13T02:57:13;17.70;99.90
6518;DHT22;3292;48.944;9.240;2023-07-13T02:59:41;17.60;99.90
6518;DHT22;3292;48.944;9.240;2023-07-13T03:02:08;17.60;99.90
6518;DHT22;3292;48.944;9.240;2023-07-13T03:04:48;17.60;99.90
6518;DHT22;3292;48.944;9.240;2023-07-13T03:07:20;17.50;99.90
6518;DHT22;3292;48.944;9.240;2023-07-13T03:09:55;17.50;99.90
6518;DHT22;3292;48.944;9.240;2023-07-13T03:12:33;17.50;99.90
6518;DHT22;3292;48.944;9.240;2023-07-13T03:15:05;17.50;99.90
6518;DHT22;3292;48.944;9.240;2023-07-13T03:17:32;17.40;99.90
6518;DHT22;3292;48.944;9.240;2023-07-13T03:20:04;17.40;99.90
6518;DHT22;3292;48.944;9.240;2023-07-13T03:22:37;17.40;99.90
6518;DHT22;3292;48.944;9.240;2023-07-13T03:25:18;17.40;99.90
6518;DHT22;3292;48.944;9.240;2023-07-13T03:27:47;17.40;99.90
6518;DHT22;3292;48.944;9.240;2023-07-13T03:30:15;17.40;99.90
6518;DHT22;3292;48.944;9.240;2023-07-13T03:32:43;17.50;99.90
6518;DHT22;3292;48.944;9.240;2023-07-13T03:35:14;17.50;99.90
6518;DHT22;3292;48.944;9.240;2023-07-13T03:37:44;17.50;99.90
6518;DHT22;3292;48.944;9.240;2023-07-13T03:40:17;17.40;99.90
6518;DHT22;3292;48.944;9.240;2023-07-13T03:42:50;17.40;99.90
6518;DHT22;3292;48.944;9.240;2023-07-13T03:45:19;17.40;99.90
6518;DHT22;3292;48.944;9.240;2023-07-13T03:47:49;17.30;99.90
6518;DHT22;3292;48.944;9.240;2023-07-13T03:50:30;17.20;99.90
6518;DHT22;3292;48.944;9.240;2023-07-13T03:53:05;17.20;99.90
6518;DHT22;3292;48.944;9.240;2023-07-13T03:55:31;17.20;99.90
6518;DHT22;3292;48.944;9.240;2023-07-13T03:58:28;17.10;99.90
6518;DHT22;3292;48.944;9.240;2023-07-13T04:00:59;17.10;99.90
6518;DHT22;3292;48.944;9.240;2023-07-13T04:03:40;17.20;99.90
6518;DHT22;3292;48.944;9.240;2023-07-13T04:06:14;17.20;99.90
6518;DHT22;3292;48.944;9.240;2023-07-13T04:08:47;17.30;99.90
6518;DHT22;3292;48.944;9.240;2023-07-13T04:11:22;17.30;99.90
6518;DHT22;3292;48.944;9.240;2023-07-13T04:13:52;17.30;99.90
6518;DHT22;3292;48.944;9.240;2023-07-13T04:16:34;17.30;99.90
6518;DHT22;3292;48.944;9.240;2023-07-13T04:19:12;17.30;99.90
6518;DHT22;3292;48.944;9.240;2023-07-13T04:21:39;17.30;99.90
6518;DHT22;3292;48.944;9.240;2023-07-13T04:24:12;17.40;99.90
6518;DHT22;3292;48.944;9.240;2023-07-13T04:26:44;17.40;99.90
6518;DHT22;3292;48.944;9.240;2023-07-13T04:29:15;17.40;99.90
6518;DHT22;3292;48.944;9.240;2023-07-13T04:31:47;17.40;99.90
6518;DHT22;3292;48.944;9.240;2023-07-13T04:34:15;17.40;99.90
6518;DHT22;3292;48.944;9.240;2023-07-13T04:36:47;17.40;99.90
6518;DHT22;3292;48.944;9.240;2023-07-13T04:39:27;17.40;99.90
6518;DHT22;3292;48.944;9.240;2023-07-13T04:41:55;17.40;99.90
6518;DHT22;3292;48.944;9.240;2023-07-13T04:44:25;17.40;99.90
6518;DHT22;3292;48.944;9.240;2023-07-13T04:47:00;17.40;99.90
6518;DHT22;3292;48.944;9.240;2023-07-13T04:49:30;17.40;99.90
6518;DHT22;3292;48.944;9.240;2023-07-13T04:52:01;17.50;99.90
6518;DHT22;3292;48.944;9.240;2023-07-13T04:54:35;17.40;99.90
6518;DHT22;3292;48.944;9.240;2023-07-13T04:57:06;17.50;99.90
6518;DHT22;3292;48.944;9.240;2023-07-13T04:59:34;17.40;99.90
6518;DHT22;3292;48.944;9.240;2023-07-13T05:02:16;17.40;99.90
6518;DHT22;3292;48.944;9.240;2023-07-13T05:04:55;17.40;99.90
6518;DHT22;3292;48.944;9.240;2023-07-13T05:07:34;17.30;99.90
6518;DHT22;3292;48.944;9.240;2023-07-13T05:10:08;17.30;99.90
6518;DHT22;3292;48.944;9.240;2023-07-13T05:12:51;17.30;99.90
6518;DHT22;3292;48.944;9.240;2023-07-13T05:15:20;17.50;99.90
6518;DHT22;3292;48.944;9.240;2023-07-13T05:17:49;17.50;99.90
6518;DHT22;3292;48.944;9.240;2023-07-13T05:20:17;17.60;99.90
6518;DHT22;3292;48.944;9.240;2023-07-13T05:22:44;17.70;99.90
6518;DHT22;3292;48.944;9.240;2023-07-13T05:25:12;17.80;99.90
6518;DHT22;3292;48.944;9.240;2023-07-13T05:27:39;17.90;99.90
6518;DHT22;3292;48.944;9.240;2023-07-13T05:30:07;17.80;99.90
6518;DHT22;3292;48.944;9.240;2023-07-13T05:32:36;17.80;99.90
6518;DHT22;3292;48.944;9.240;2023-07-13T05:35:05;17.90;99.90
6518;DHT22;3292;48.944;9.240;2023-07-13T05:37:32;18.00;99.90
6518;DHT22;3292;48.944;9.240;2023-07-13T05:40:11;18.00;99.90
6518;DHT22;3292;48.944;9.240;2023-07-13T05:42:37;18.00;99.90
6518;DHT22;3292;48.944;9.240;2023-07-13T05:45:05;18.10;99.90
6518;DHT22;3292;48.944;9.240;2023-07-13T05:47:32;18.10;99.90
6518;DHT22;3292;48.944;9.240;2023-07-13T05:50:14;18.20;99.90
6518;DHT22;3292;48.944;9.240;2023-07-13T05:52:50;18.20;99.90
6518;DHT22;3292;48.944;9.240;2023-07-13T05:55:23;18.20;99.90
6518;DHT22;3292;48.944;9.240;2023-07-13T05:57:50;18.20;99.90
6518;DHT22;3292;48.944;9.240;2023-07-13T06:00:17;18.30;99.90
6518;DHT22;3292;48.944;9.240;2023-07-13T06:02:44;18.30;99.90
6518;DHT22;3292;48.944;9.240;2023-07-13T06:05:11;18.40;99.90
6518;DHT22;3292;48.944;9.240;2023-07-13T06:07:41;18.50;99.90
6518;DHT22;3292;48.944;9.240;2023-07-13T06:10:11;18.50;99.90
6518;DHT22;3292;48.944;9.240;2023-07-13T06:12:38;18.80;99.90
6518;DHT22;3292;48.944;9.240;2023-07-13T06:15:06;19.30;99.90
6518;DHT22;3292;48.944;9.240;2023-07-13T06:17:33;19.90;99.90
6518;DHT22;3292;48.944;9.240;2023-07-13T06:20:00;20.60;99.90
6518;DHT22;3292;48.944;9.240;2023-07-13T06:22:27;21.40;99.90
6518;DHT22;3292;48.944;9.240;2023-07-13T06:24:55;22.50;99.90
6518;DHT22;3292;48.944;9.240;2023-07-13T06:27:21;22.90;99.90
6518;DHT22;3292;48.944;9.240;2023-07-13T06:29:48;22.70;99.90
6518;DHT22;3292;48.944;9.240;2023-07-13T06:32:15;22.50;99.90
6518;DHT22;3292;48.944;9.240;2023-07-13T06:34:42;22.20;99.90
6518;DHT22;3292;48.944;9.240;2023-07-13T06:37:09;21.70;99.90
6518;DHT22;3292;48.944;9.240;2023-07-13T06:39:36;21.20;99.90
6518;DHT22;3292;48.944;9.240;2023-07-13T06:42:05;21.00;99.90
6518;DHT22;3292;48.944;9.240;2023-07-13T06:44:32;20.90;99.90
6518;DHT22;3292;48.944;9.240;2023-07-13T06:46:59;21.10;99.90
6518;DHT22;3292;48.944;9.240;2023-07-13T06:49:26;21.40;99.90
6518;DHT22;3292;48.944;9.240;2023-07-13T06:51:52;22.40;99.90
6518;DHT22;3292;48.944;9.240;2023-07-13T06:54:19;23.40;99.90
6518;DHT22;3292;48.944;9.240;2023-07-13T06:56:46;23.70;99.90
6518;DHT22;3292;48.944;9.240;2023-07-13T06:59:14;23.70;99.90
6518;DHT22;3292;48.944;9.240;2023-07-13T07:01:41;23.70;99.90
6518;DHT22;3292;48.944;9.240;2023-07-13T07:04:08;23.60;99.90
6518;DHT22;3292;48.944;9.240;2023-07-13T07:06:35;23.30;99.90
6518;DHT22;3292;48.944;9.240;2023-07-13T07:09:01;23.00;99.90
6518;DHT22;3292;48.944;9.240;2023-07-13T07:11:28;22.80;99.90
6518;DHT22;3292;48.944;9.240;2023-07-13T07:13:55;22.80;99.90
6518;DHT22;3292;48.944;9.240;2023-07-13T07:16:25;22.90;99.90
6518;DHT22;3292;48.944;9.240;2023-07-13T07:18:52;22.90;99.90
6518;DHT22;3292;48.944;9.240;2023-07-13T07:21:18;22.90;99.90
6518;DHT22;3292;48.944;9.240;2023-07-13T07:23:48;23.00;99.90
6518;DHT22;3292;48.944;9.240;2023-07-13T07:26:15;23.20;99.90
6518;DHT22;3292;48.944;9.240;2023-07-13T07:28:46;23.40;99.90
6518;DHT22;3292;48.944;9.240;2023-07-13T07:31:12;24.00;99.90
6518;DHT22;3292;48.944;9.240;2023-07-13T07:33:40;24.30;99.90
6518;DHT22;3292;48.944;9.240;2023-07-13T07:36:07;24.20;99.90
6518;DHT22;3292;48.944;9.240;2023-07-13T07:38:34;24.00;99.90
6518;DHT22;3292;48.944;9.240;2023-07-13T07:41:03;24.20;99.90
6518;DHT22;3292;48.944;9.240;2023-07-13T07:43:30;24.70;99.90
6518;DHT22;3292;48.944;9.240;2023-07-13T07:45:57;25.20;99.90
6518;DHT22;3292;48.944;9.240;2023-07-13T07:48:24;25.50;99.90
6518;DHT22;3292;48.944;9.240;2023-07-13T07:50:52;25.90;99.90
6518;DHT22;3292;48.944;9.240;2023-07-13T07:53:19;25.80;99.90
6518;DHT22;3292;48.944;9.240;2023-07-13T07:55:47;25.20;99.90
6518;DHT22;3292;48.944;9.240;2023-07-13T07:58:14;25.40;99.90
6518;DHT22;3292;48.944;9.240;2023-07-13T08:00:41;25.50;99.90
6518;DHT22;3292;48.944;9.240;2023-07-13T08:03:09;25.20;99.10
6518;DHT22;3292;48.944;9.240;2023-07-13T08:05:36;25.10;98.00
6518;DHT22;3292;48.944;9.240;2023-07-13T08:08:05;24.50;99.60
6518;DHT22;3292;48.944;9.240;2023-07-13T08:10:35;24.30;98.90
6518;DHT22;3292;48.944;9.240;2023-07-13T08:13:02;24.40;99.90
6518;DHT22;3292;48.944;9.240;2023-07-13T08:15:29;24.70;99.90
6518;DHT22;3292;48.944;9.240;2023-07-13T08:17:56;24.40;99.10
6518;DHT22;3292;48.944;9.240;2023-07-13T08:20:23;24.70;99.30
6518;DHT22;3292;48.944;9.240;2023-07-13T08:22:50;24.80;99.90
6518;DHT22;3292;48.944;9.240;2023-07-13T08:25:21;25.10;99.30
6518;DHT22;3292;48.944;9.240;2023-07-13T08:27:48;25.20;99.90
6518;DHT22;3292;48.944;9.240;2023-07-13T08:30:15;25.40;98.30
6518;DHT22;3292;48.944;9.240;2023-07-13T08:32:42;25.60;99.20
6518;DHT22;3292;48.944;9.240;2023-07-13T08:35:09;25.90;98.50
6518;DHT22;3292;48.944;9.240;2023-07-13T08:37:36;25.90;97.40
6518;DHT22;3292;48.944;9.240;2023-07-13T08:40:04;25.50;97.30
6518;DHT22;3292;48.944;9.240;2023-07-13T08:42:36;25.40;97.40
6518;DHT22;3292;48.944;9.240;2023-07-13T08:45:11;25.20;97.60
6518;DHT22;3292;48.944;9.240;2023-07-13T08:47:42;25.30;99.40
6518;DHT22;3292;48.944;9.240;2023-07-13T08:50:13;25.60;99.20
6518;DHT22;3292;48.944;9.240;2023-07-13T08:52:43;25.60;98.00
6518;DHT22;3292;48.944;9.240;2023-07-13T08:55:14;25.60;97.60
6518;DHT22;3292;48.944;9.240;2023-07-13T08:57:46;25.90;99.90
6518;DHT22;3292;48.944;9.240;2023-07-13T09:00:15;26.00;98.80
6518;DHT22;3292;48.944;9.240;2023-07-13T09:02:49;26.20;99.30
6518;DHT22;3292;48.944;9.240;2023-07-13T09:05:25;26.30;98.40
6518;DHT22;3292;48.944;9.240;2023-07-13T09:08:03;26.50;97.80
6518;DHT22;3292;48.944;9.240;2023-07-13T09:10:37;26.70;97.80
6518;DHT22;3292;48.944;9.240;2023-07-13T09:13:19;27.00;97.80
6518;DHT22;3292;48.944;9.240;2023-07-13T09:15:49;27.00;97.30
6518;DHT22;3292;48.944;9.240;2023-07-13T09:18:23;27.20;95.10
6518;DHT22;3292;48.944;9.240;2023-07-13T09:20:55;27.10;94.10
6518;DHT22;3292;48.944;9.240;2023-07-13T09:23:24;27.10;94.40
6518;DHT22;3292;48.944;9.240;2023-07-13T09:26:00;26.90;93.00
6518;DHT22;3292;48.944;9.240;2023-07-13T09:28:35;26.40;92.50
6518;DHT22;3292;48.944;9.240;2023-07-13T09:31:06;26.20;93.70
6518;DHT22;3292;48.944;9.240;2023-07-13T09:33:33;26.10;93.00
6518;DHT22;3292;48.944;9.240;2023-07-13T09:36:01;26.10;93.30
6518;DHT22;3292;48.944;9.240;2023-07-13T09:38:29;26.40;92.90
6518;DHT22;3292;48.944;9.240;2023-07-13T09:41:15;26.50;92.40
6518;DHT22;3292;48.944;9.240;2023-07-13T09:46:47;26.40;91.30
6518;DHT22;3292;48.944;9.240;2023-07-13T09:49:13;25.90;91.40
6518;DHT22;3292;48.944;9.240;2023-07-13T09:51:41;26.00;91.80
6518;DHT22;3292;48.944;9.240;2023-07-13T09:54:18;25.90;90.00
6518;DHT22;3292;48.944;9.240;2023-07-13T09:56:45;25.70;90.30
6518;DHT22;3292;48.944;9.240;2023-07-13T09:59:19;25.90;90.80
6518;DHT22;3292;48.944;9.240;2023-07-13T10:01:48;26.10;89.80
6518;DHT22;3292;48.944;9.240;2023-07-13T10:04:18;25.90;88.60
6518;DHT22;3292;48.944;9.240;2023-07-13T10:06:45;25.60;89.20
6518;DHT22;3292;48.944;9.240;2023-07-13T10:09:15;26.00;91.10
6518;DHT22;3292;48.944;9.240;2023-07-13T10:11:42;26.00;89.90
6518;DHT22;3292;48.944;9.240;2023-07-13T10:14:13;26.30;87.60
6518;DHT22;3292;48.944;9.240;2023-07-13T10:16:43;26.20;90.70
6518;DHT22;3292;48.944;9.240;2023-07-13T10:19:15;26.30;89.10
6518;DHT22;3292;48.944;9.240;2023-07-13T10:21:50;26.70;89.50
6518;DHT22;3292;48.944;9.240;2023-07-13T10:24:23;26.50;88.60
6518;DHT22;3292;48.944;9.240;2023-07-13T10:26:56;26.30;90.10
6518;DHT22;3292;48.944;9.240;2023-07-13T10:29:27;26.50;89.00
6518;DHT22;3292;48.944;9.240;2023-07-13T10:31:54;26.50;88.80
6518;DHT22;3292;48.944;9.240;2023-07-13T10:34:24;26.30;90.20
6518;DHT22;3292;48.944;9.240;2023-07-13T10:36:52;26.70;89.20
6518;DHT22;3292;48.944;9.240;2023-07-13T10:39:21;26.60;85.80
6518;DHT22;3292;48.944;9.240;2023-07-13T10:41:52;26.70;86.00
6518;DHT22;3292;48.944;9.240;2023-07-13T10:44:27;26.80;85.80
6518;DHT22;3292;48.944;9.240;2023-07-13T10:46:58;26.50;84.20
6518;DHT22;3292;48.944;9.240;2023-07-13T10:49:29;26.30;85.60
6518;DHT22;3292;48.944;9.240;2023-07-13T10:51:57;26.10;85.10
6518;DHT22;3292;48.944;9.240;2023-07-13T10:54:28;26.10;86.00
6518;DHT22;3292;48.944;9.240;2023-07-13T10:57:16;26.00;86.30
6518;DHT22;3292;48.944;9.240;2023-07-13T10:59:46;26.00;84.30
6518;DHT22;3292;48.944;9.240;2023-07-13T11:02:23;25.70;85.20
6518;DHT22;3292;48.944;9.240;2023-07-13T11:04:53;25.80;90.00
6518;DHT22;3292;48.944;9.240;2023-07-13T11:07:22;26.00;87.20
6518;DHT22;3292;48.944;9.240;2023-07-13T11:09:50;26.30;85.40
6518;DHT22;3292;48.944;9.240;2023-07-13T11:15:12;26.40;87.70
6518;DHT22;3292;48.944;9.240;2023-07-13T11:17:50;26.70;84.90
6518;DHT22;3292;48.944;9.240;2023-07-13T11:20:36;27.00;83.90
6518;DHT22;3292;48.944;9.240;2023-07-13T11:23:26;27.10;77.90
6518;DHT22;3292;48.944;9.240;2023-07-13T11:25:54;26.80;76.60
6518;DHT22;3292;48.944;9.240;2023-07-13T11:28:23;26.70;75.80
6518;DHT22;3292;48.944;9.240;2023-07-13T11:31:12;26.80;78.30
6518;DHT22;3292;48.944;9.240;2023-07-13T11:33:57;26.80;78.00
6518;DHT22;3292;48.944;9.240;2023-07-13T11:36:31;27.30;81.00
6518;DHT22;3292;48.944;9.240;2023-07-13T11:39:02;27.60;79.00
6518;DHT22;3292;48.944;9.240;2023-07-13T11:41:33;27.70;79.90
6518;DHT22;3292;48.944;9.240;2023-07-13T11:44:13;27.10;78.40
6518;DHT22;3292;48.944;9.240;2023-07-13T11:46:45;27.00;78.80
6518;DHT22;3292;48.944;9.240;2023-07-13T11:49:15;27.20;76.70
6518;DHT22;3292;48.944;9.240;2023-07-13T11:51:44;27.00;76.10
6518;DHT22;3292;48.944;9.240;2023-07-13T11:54:20;27.30;76.20
6518;DHT22;3292;48.944;9.240;2023-07-13T11:56:49;27.20;77.70
6518;DHT22;3292;48.944;9.240;2023-07-13T11:59:16;26.90;77.00
6518;DHT22;3292;48.944;9.240;2023-07-13T12:01:46;26.60;77.70
6518;DHT22;3292;48.944;9.240;2023-07-13T12:04:21;26.50;77.40
6518;DHT22;3292;48.944;9.240;2023-07-13T12:06:55;26.20;76.50
6518;DHT22;3292;48.944;9.240;2023-07-13T12:09:22;26.00;79.30
6518;DHT22;3292;48.944;9.240;2023-07-13T12:11:51;26.00;80.40
6518;DHT22;3292;48.944;9.240;2023-07-13T12:14:18;26.20;78.10
6518;DHT22;3292;48.944;9.240;2023-07-13T12:16:46;26.50;79.00
6518;DHT22;3292;48.944;9.240;2023-07-13T12:19:18;26.70;79.70
6518;DHT22;3292;48.944;9.240;2023-07-13T12:21:46;26.60;78.80
6518;DHT22;3292;48.944;9.240;2023-07-13T12:24:16;26.30;78.70
6518;DHT22;3292;48.944;9.240;2023-07-13T12:26:43;26.30;79.60
6518;DHT22;3292;48.944;9.240;2023-07-13T12:29:15;26.20;77.00
6518;DHT22;3292;48.944;9.240;2023-07-13T12:31:44;26.40;78.20
6518;DHT22;3292;48.944;9.240;2023-07-13T12:34:12;26.50;76.90
6518;DHT22;3292;48.944;9.240;2023-07-13T12:36:46;26.90;81.10
6518;DHT22;3292;48.944;9.240;2023-07-13T12:39:18;27.10;75.10
6518;DHT22;3292;48.944;9.240;2023-07-13T12:41:46;27.40;76.20
6518;DHT22;3292;48.944;9.240;2023-07-13T12:44:15;27.30;73.70
6518;DHT22;3292;48.944;9.240;2023-07-13T12:46:56;27.50;77.30
6518;DHT22;3292;48.944;9.240;2023-07-13T12:49:27;27.60;72.60
6518;DHT22;3292;48.944;9.240;2023-07-13T12:51:59;27.50;71.20
6518;DHT22;3292;48.944;9.240;2023-07-13T12:54:29;27.30;71.60
6518;DHT22;3292;48.944;9.240;2023-07-13T12:56:59;27.30;72.10
6518;DHT22;3292;48.944;9.240;2023-07-13T12:59:31;27.40;71.70
6518;DHT22;3292;48.944;9.240;2023-07-13T13:01:59;27.50;70.80
6518;DHT22;3292;48.944;9.240;2023-07-13T13:04:28;27.70;67.90
6518;DHT22;3292;48.944;9.240;2023-07-13T13:07:03;27.60;69.70
6518;DHT22;3292;48.944;9.240;2023-07-13T13:09:33;27.50;68.90
6518;DHT22;3292;48.944;9.240;2023-07-13T13:12:02;27.70;70.10
6518;DHT22;3292;48.944;9.240;2023-07-13T13:14:31;27.50;68.30
6518;DHT22;3292;48.944;9.240;2023-07-13T13:16:58;27.40;69.50
6518;DHT22;3292;48.944;9.240;2023-07-13T13:19:28;27.10;69.20
6518;DHT22;3292;48.944;9.240;2023-07-13T13:21:56;27.10;69.50
6518;DHT22;3292;48.944;9.240;2023-07-13T13:24:25;27.30;71.30
6518;DHT22;3292;48.944;9.240;2023-07-13T13:26:54;27.50;69.60
6518;DHT22;3292;48.944;9.240;2023-07-13T13:29:23;27.40;68.10
6518;DHT22;3292;48.944;9.240;2023-07-13T13:31:51;27.40;70.30
6518;DHT22;3292;48.944;9.240;2023-07-13T13:34:19;27.50;69.10
6518;DHT22;3292;48.944;9.240;2023-07-13T13:36:49;27.50;68.60
6518;DHT22;3292;48.944;9.240;2023-07-13T13:39:20;27.60;69.50
6518;DHT22;3292;48.944;9.240;2023-07-13T13:41:48;27.70;68.50
6518;DHT22;3292;48.944;9.240;2023-07-13T13:44:17;27.60;68.30
6518;DHT22;3292;48.944;9.240;2023-07-13T13:46:46;27.50;68.00
6518;DHT22;3292;48.944;9.240;2023-07-13T13:49:18;27.50;67.70
6518;DHT22;3292;48.944;9.240;2023-07-13T13:51:46;27.40;67.00
6518;DHT22;3292;48.944;9.240;2023-07-13T13:54:14;27.30;68.20
6518;DHT22;3292;48.944;9.240;2023-07-13T13:56:42;27.20;68.60
6518;DHT22;3292;48.944;9.240;2023-07-13T13:59:09;26.70;67.80
6518;DHT22;3292;48.944;9.240;2023-07-13T14:01:38;26.70;68.00
6518;DHT22;3292;48.944;9.240;2023-07-13T14:04:06;26.70;68.60
6518;DHT22;3292;48.944;9.240;2023-07-13T14:06:34;26.90;68.90
6518;DHT22;3292;48.944;9.240;2023-07-13T14:09:01;27.00;67.70
6518;DHT22;3292;48.944;9.240;2023-07-13T14:11:30;27.10;67.00
6518;DHT22;3292;48.944;9.240;2023-07-13T14:13:59;27.20;68.30
6518;DHT22;3292;48.944;9.240;2023-07-13T14:16:28;27.10;66.20
6518;DHT22;3292;48.944;9.240;2023-07-13T14:18:59;27.20;69.80
6518;DHT22;3292;48.944;9.240;2023-07-13T14:21:27;27.40;66.90
6518;DHT22;3292;48.944;9.240;2023-07-13T14:23:54;27.40;67.80
6518;DHT22;3292;48.944;9.240;2023-07-13T14:26:22;27.40;65.30
6518;DHT22;3292;48.944;9.240;2023-07-13T14:28:52;27.50;65.10
6518;DHT22;3292;48.944;9.240;2023-07-13T14:31:23;27.30;62.70
6518;DHT22;3292;48.944;9.240;2023-07-13T14:33:50;27.30;65.10
6518;DHT22;3292;48.944;9.240;2023-07-13T14:36:36;27.30;65.80
6518;DHT22;3292;48.944;9.240;2023-07-13T14:39:11;27.40;66.40
6518;DHT22;3292;48.944;9.240;2023-07-13T14:41:38;27.30;66.40
6518;DHT22;3292;48.944;9.240;2023-07-13T14:44:11;27.20;65.00
6518;DHT22;3292;48.944;9.240;2023-07-13T14:46:38;27.10;66.70
6518;DHT22;3292;48.944;9.240;2023-07-13T14:49:09;27.10;67.20
6518;DHT22;3292;48.944;9.240;2023-07-13T14:51:40;27.10;66.70
6518;DHT22;3292;48.944;9.240;2023-07-13T14:54:09;27.30;67.40
6518;DHT22;3292;48.944;9.240;2023-07-13T14:56:40;27.40;69.30
6518;DHT22;3292;48.944;9.240;2023-07-13T14:59:07;27.30;68.00
6518;DHT22;3292;48.944;9.240;2023-07-13T15:01:35;27.20;67.20
6518;DHT22;3292;48.944;9.240;2023-07-13T15:04:03;27.20;70.20
6518;DHT22;3292;48.944;9.240;2023-07-13T15:06:30;27.10;68.20
6518;DHT22;3292;48.944;9.240;2023-07-13T15:09:00;26.80;68.90
6518;DHT22;3292;48.944;9.240;2023-07-13T15:11:27;27.00;68.60
6518;DHT22;3292;48.944;9.240;2023-07-13T15:13:54;27.00;70.40
6518;DHT22;3292;48.944;9.240;2023-07-13T15:16:26;26.90;69.40
6518;DHT22;3292;48.944;9.240;2023-07-13T15:18:54;26.80;69.10
6518;DHT22;3292;48.944;9.240;2023-07-13T15:21:23;26.50;68.70
6518;DHT22;3292;48.944;9.240;2023-07-13T15:23:51;26.30;69.10
6518;DHT22;3292;48.944;9.240;2023-07-13T15:26:19;26.20;69.90
6518;DHT22;3292;48.944;9.240;2023-07-13T15:28:47;26.10;69.90
6518;DHT22;3292;48.944;9.240;2023-07-13T15:31:20;26.20;71.20
6518;DHT22;3292;48.944;9.240;2023-07-13T15:33:50;26.50;71.70
6518;DHT22;3292;48.944;9.240;2023-07-13T15:36:19;26.60;70.10
6518;DHT22;3292;48.944;9.240;2023-07-13T15:38:48;26.80;71.30
6518;DHT22;3292;48.944;9.240;2023-07-13T15:41:19;26.70;69.10
6518;DHT22;3292;48.944;9.240;2023-07-13T15:43:48;26.40;69.50
6518;DHT22;3292;48.944;9.240;2023-07-13T15:46:17;26.20;69.00
6518;DHT22;3292;48.944;9.240;2023-07-13T15:48:45;26.10;70.80
6518;DHT22;3292;48.944;9.240;2023-07-13T15:51:17;26.20;70.60
6518;DHT22;3292;48.944;9.240;2023-07-13T15:53:46;26.10;70.30
6518;DHT22;3292;48.944;9.240;2023-07-13T15:56:21;26.30;71.80
6518;DHT22;3292;48.944;9.240;2023-07-13T15:58:50;26.20;68.90
6518;DHT22;3292;48.944;9.240;2023-07-13T16:01:17;26.00;70.00
6518;DHT22;3292;48.944;9.240;2023-07-13T16:03:46;25.90;70.10
6518;DHT22;3292;48.944;9.240;2023-07-13T16:06:15;25.90;70.40
6518;DHT22;3292;48.944;9.240;2023-07-13T16:08:44;25.90;69.90
6518;DHT22;3292;48.944;9.240;2023-07-13T16:11:19;25.90;70.80
6518;DHT22;3292;48.944;9.240;2023-07-13T16:13:47;25.90;70.30
6518;DHT22;3292;48.944;9.240;2023-07-13T16:16:17;26.00;70.00
6518;DHT22;3292;48.944;9.240;2023-07-13T16:18:44;25.80;69.00
6518;DHT22;3292;48.944;9.240;2023-07-13T16:21:15;25.80;70.00
6518;DHT22;3292;48.944;9.240;2023-07-13T16:23:43;25.90;69.40
6518;DHT22;3292;48.944;9.240;2023-07-13T16:26:28;25.80;69.70
6518;DHT22;3292;48.944;9.240;2023-07-13T16:28:58;25.70;69.20